createdAt,value
2022-11-29T00:00:08.920Z,13.00
2022-11-29T00:02:36.616Z,14.90
2022-11-29T00:05:04.314Z,15.13
2022-11-29T00:07:31.979Z,13.27
2022-11-29T00:09:59.467Z,15.10
2022-11-29T00:12:26.955Z,14.40
2022-11-29T00:14:54.450Z,14.47
2022-11-29T00:17:23.322Z,13.57
2022-11-29T00:19:50.954Z,13.90
2022-11-29T00:22:18.486Z,14.53
2022-11-29T00:24:46.149Z,13.50
2022-11-29T00:27:13.821Z,14.83
2022-11-29T00:29:41.263Z,14.07
2022-11-29T00:32:08.713Z,15.60
2022-11-29T00:34:37.980Z,13.57
2022-11-29T00:37:05.489Z,14.00
2022-11-29T00:39:33.060Z,13.10
2022-11-29T00:42:00.537Z,13.77
2022-11-29T00:44:28.056Z,13.57
2022-11-29T00:46:55.524Z,14.60
2022-11-29T00:49:23.006Z,13.07
2022-11-29T00:51:51.899Z,14.27
2022-11-29T00:54:19.435Z,13.40
2022-11-29T00:56:46.970Z,13.70
2022-11-29T00:59:14.425Z,13.63
2022-11-29T01:01:42.038Z,13.60
2022-11-29T01:04:09.583Z,13.90
2022-11-29T01:06:37.305Z,12.67
2022-11-29T01:09:06.753Z,13.30
2022-11-29T01:11:34.434Z,14.17
2022-11-29T01:14:03.893Z,13.87
2022-11-29T01:16:32.135Z,13.43
2022-11-29T01:19:00.337Z,12.37
2022-11-29T01:21:27.927Z,13.23
2022-11-29T01:23:55.743Z,14.67
2022-11-29T01:26:26.002Z,14.30
2022-11-29T01:28:55.297Z,15.13
2022-11-29T01:31:25.121Z,12.77
2022-11-29T01:33:54.598Z,13.20
2022-11-29T01:36:22.173Z,14.47
2022-11-29T01:38:49.662Z,12.63
2022-11-29T01:41:19.300Z,12.57
2022-11-29T01:44:01.088Z,14.03
2022-11-29T01:46:29.392Z,12.80
2022-11-29T01:49:01.727Z,12.97
2022-11-29T01:51:29.556Z,13.97
2022-11-29T01:53:57.132Z,13.20
2022-11-29T01:56:25.407Z,14.20
2022-11-29T01:58:53.109Z,13.47
2022-11-29T02:01:22.050Z,13.80
2022-11-29T02:03:49.743Z,13.77
2022-11-29T02:06:17.631Z,14.53
2022-11-29T02:08:45.153Z,13.57
2022-11-29T02:11:49.673Z,14.37
2022-11-29T02:14:29.886Z,12.17
2022-11-29T02:17:02.651Z,14.07
2022-11-29T02:19:54.716Z,14.67
2022-11-29T02:22:25.652Z,12.83
2022-11-29T02:25:07.734Z,13.10
2022-11-29T02:28:03.384Z,12.90
2022-11-29T02:30:47.357Z,13.13
2022-11-29T02:33:33.793Z,13.37
2022-11-29T02:36:13.386Z,14.63
2022-11-29T02:39:04.449Z,15.03
2022-11-29T02:41:45.464Z,13.30
2022-11-29T02:44:38.170Z,13.80
2022-11-29T02:47:16.887Z,13.87
2022-11-29T02:50:05.654Z,13.70
2022-11-29T02:52:39.297Z,13.73
2022-11-29T02:55:10.937Z,14.70
2022-11-29T02:57:43.752Z,13.80
2022-11-29T03:00:14.851Z,13.03
2022-11-29T03:02:49.268Z,12.77
2022-11-29T03:05:21.515Z,12.50
2022-11-29T03:07:54.722Z,14.30
2022-11-29T03:10:30.581Z,13.00
2022-11-29T03:12:59.595Z,13.67
2022-11-29T03:15:31.025Z,14.90
2022-11-29T03:18:09.730Z,14.70
2022-11-29T03:20:46.601Z,13.23
2022-11-29T03:23:19.644Z,14.87
2022-11-29T03:25:50.217Z,12.67
2022-11-29T03:28:20.463Z,11.50
2022-11-29T03:30:53.761Z,13.47
2022-11-29T03:33:27.413Z,13.70
2022-11-29T03:36:00.612Z,13.80
2022-11-29T03:38:34.076Z,12.80
2022-11-29T03:41:06.825Z,13.43
2022-11-29T03:43:40.546Z,13.10
2022-11-29T03:46:12.531Z,13.67
2022-11-29T03:48:43.843Z,12.43
2022-11-29T03:51:15.859Z,12.27
2022-11-29T03:53:49.205Z,12.77
2022-11-29T03:56:25.118Z,11.77
2022-11-29T03:58:56.455Z,13.00
2022-11-29T04:01:38.822Z,12.17
2022-11-29T04:04:42.928Z,11.40
2022-11-29T04:07:27.771Z,13.17
2022-11-29T04:10:07.834Z,12.23
2022-11-29T04:13:04.963Z,12.77
2022-11-29T04:16:03.000Z,11.30
2022-11-29T04:18:54.698Z,12.47
2022-11-29T04:21:32.011Z,13.97
2022-11-29T04:24:32.953Z,12.83
2022-11-29T04:27:40.287Z,12.60
2022-11-29T04:30:15.304Z,12.90
2022-11-29T04:33:08.563Z,11.80
2022-11-29T04:36:32.987Z,11.47
2022-11-29T04:39:08.678Z,12.97
2022-11-29T04:41:55.573Z,11.50
2022-11-29T04:44:38.578Z,11.43
2022-11-29T04:47:20.819Z,12.23
2022-11-29T04:50:00.944Z,13.00
2022-11-29T04:52:43.565Z,12.90
2022-11-29T04:55:26.197Z,13.10
2022-11-29T04:58:00.895Z,13.10
2022-11-29T05:00:32.478Z,12.53
2022-11-29T05:03:01.505Z,12.37
2022-11-29T05:05:34.551Z,13.40
2022-11-29T05:08:16.043Z,11.87
2022-11-29T05:10:48.491Z,14.20
2022-11-29T05:13:21.826Z,13.03
2022-11-29T05:16:05.594Z,13.13
2022-11-29T05:18:50.970Z,13.87
2022-11-29T05:21:26.006Z,13.63
2022-11-29T05:24:00.620Z,13.40
2022-11-29T05:26:30.542Z,13.10
2022-11-29T05:29:02.717Z,14.67
2022-11-29T05:31:51.967Z,14.20
2022-11-29T05:34:35.255Z,14.63
2022-11-29T05:37:09.076Z,13.80
2022-11-29T05:39:48.967Z,12.80
2022-11-29T05:42:33.858Z,12.60
2022-11-29T05:45:04.943Z,13.10
2022-11-29T05:47:39.390Z,13.37
2022-11-29T05:50:12.432Z,13.83
2022-11-29T05:52:48.548Z,12.50
2022-11-29T05:55:23.407Z,14.03
2022-11-29T05:57:56.048Z,12.30
2022-11-29T06:00:24.052Z,13.27
2022-11-29T06:02:58.911Z,13.73
2022-11-29T06:05:33.181Z,13.93
2022-11-29T06:08:06.941Z,12.27
2022-11-29T06:10:38.089Z,13.83
2022-11-29T06:13:18.164Z,13.10
2022-11-29T06:16:14.035Z,13.17
2022-11-29T06:19:12.914Z,12.73
2022-11-29T06:21:46.512Z,12.87
2022-11-29T06:24:36.009Z,13.17
2022-11-29T06:27:17.647Z,14.47
2022-11-29T06:29:50.296Z,16.20
2022-11-29T06:32:22.534Z,14.00
2022-11-29T06:34:56.791Z,15.70
2022-11-29T06:37:28.670Z,16.00
2022-11-29T06:39:56.772Z,16.63
2022-11-29T06:42:24.338Z,16.80
2022-11-29T06:44:52.371Z,14.70
2022-11-29T06:47:24.919Z,14.17
2022-11-29T06:49:57.375Z,14.07
2022-11-29T06:52:29.250Z,14.43
2022-11-29T06:55:16.468Z,11.97
2022-11-29T06:57:56.983Z,14.63
2022-11-29T07:00:27.224Z,14.30
2022-11-29T07:03:11.214Z,13.33
2022-11-29T07:05:41.099Z,12.83
2022-11-29T07:08:13.133Z,12.47
2022-11-29T07:10:42.041Z,12.90
2022-11-29T07:13:12.480Z,13.40
2022-11-29T07:15:40.403Z,13.40
2022-11-29T07:18:18.243Z,12.93
2022-11-29T07:20:55.843Z,12.83
2022-11-29T07:23:29.800Z,14.33
2022-11-29T07:26:04.980Z,13.70
2022-11-29T07:28:40.742Z,13.63
2022-11-29T07:31:13.413Z,12.73
2022-11-29T07:33:48.156Z,17.13
2022-11-29T07:36:22.374Z,15.17
2022-11-29T07:38:58.784Z,15.73
2022-11-29T07:41:34.869Z,14.77
2022-11-29T07:44:06.540Z,14.03
2022-11-29T07:46:34.102Z,17.70
2022-11-29T07:49:01.666Z,13.53
2022-11-29T07:51:30.564Z,15.63
2022-11-29T07:53:58.091Z,15.80
2022-11-29T07:56:25.620Z,15.33
2022-11-29T07:58:53.137Z,14.57
2022-11-29T08:01:20.734Z,15.03
2022-11-29T08:03:48.388Z,15.07
2022-11-29T08:06:15.923Z,16.43
2022-11-29T08:08:44.776Z,18.80
2022-11-29T08:11:12.811Z,18.57
2022-11-29T08:13:40.323Z,15.10
2022-11-29T08:16:08.604Z,14.87
2022-11-29T08:18:37.190Z,14.07
2022-11-29T08:21:06.867Z,13.30
2022-11-29T08:23:34.454Z,14.37
2022-11-29T08:26:03.778Z,13.80
2022-11-29T08:28:31.256Z,16.63
2022-11-29T08:31:02.759Z,17.67
2022-11-29T08:33:30.986Z,15.53
2022-11-29T08:36:05.459Z,14.93
2022-11-29T08:38:32.954Z,15.13
2022-11-29T08:41:03.148Z,15.47
2022-11-29T08:43:30.897Z,15.03
2022-11-29T08:45:58.529Z,17.40
2022-11-29T08:48:26.575Z,16.00
2022-11-29T08:50:55.841Z,15.07
2022-11-29T08:53:42.419Z,14.30
2022-11-29T08:56:53.347Z,15.57
2022-11-29T08:59:00.751Z,13.73
2022-11-29T09:01:29.208Z,16.00
2022-11-29T09:04:07.620Z,15.17
2022-11-29T09:06:38.740Z,15.90
2022-11-29T09:09:06.441Z,14.37
2022-11-29T09:11:36.567Z,16.00
2022-11-29T09:14:07.045Z,15.97
2022-11-29T09:16:36.032Z,15.73
2022-11-29T09:19:03.989Z,19.43
2022-11-29T09:21:32.873Z,18.90
2022-11-29T09:24:01.434Z,19.37
2022-11-29T09:26:30.952Z,20.03
2022-11-29T09:29:01.500Z,19.70
2022-11-29T09:31:29.799Z,19.50
2022-11-29T09:33:57.726Z,21.37
2022-11-29T09:36:28.743Z,21.10
2022-11-29T09:38:56.833Z,19.07
2022-11-29T09:41:38.493Z,20.63
2022-11-29T09:44:10.980Z,22.57
2022-11-29T09:46:43.143Z,21.00
2022-11-29T09:49:35.195Z,21.70
2022-11-29T09:52:06.609Z,24.50
2022-11-29T09:54:39.264Z,20.43
2022-11-29T09:57:10.890Z,21.50
2022-11-29T09:59:43.276Z,22.43
2022-11-29T10:02:21.301Z,26.43
2022-11-29T10:04:53.320Z,23.10
2022-11-29T10:07:24.283Z,23.60
2022-11-29T10:09:55.581Z,26.00
2022-11-29T10:12:28.887Z,24.90
2022-11-29T10:15:01.329Z,24.27
2022-11-29T10:17:34.277Z,23.40
2022-11-29T10:20:06.250Z,25.37
2022-11-29T10:22:40.738Z,23.30
2022-11-29T10:25:10.324Z,26.63
2022-11-29T10:27:40.919Z,22.67
2022-11-29T10:30:15.932Z,23.83
2022-11-29T10:32:45.493Z,25.53
2022-11-29T10:35:14.860Z,20.97
2022-11-29T10:37:45.860Z,20.23
2022-11-29T10:40:31.248Z,20.87
2022-11-29T10:42:58.808Z,20.53
2022-11-29T10:45:33.831Z,20.87
2022-11-29T10:48:04.660Z,23.47
2022-11-29T10:50:48.613Z,20.53
2022-11-29T10:53:17.543Z,20.13
2022-11-29T10:55:47.164Z,21.73
2022-11-29T10:58:23.269Z,19.87
2022-11-29T11:00:57.294Z,21.10
2022-11-29T11:03:33.670Z,21.10
2022-11-29T11:06:04.571Z,20.60
2022-11-29T11:08:33.053Z,22.20
2022-11-29T11:11:02.914Z,22.10
2022-11-29T11:13:32.240Z,23.10
2022-11-29T11:16:10.254Z,21.47
2022-11-29T11:18:38.699Z,21.00
2022-11-29T11:21:09.510Z,20.03
2022-11-29T11:23:42.791Z,20.53
2022-11-29T11:26:13.128Z,21.07
2022-11-29T11:28:44.403Z,20.73
2022-11-29T11:31:14.194Z,21.33
2022-11-29T11:33:42.714Z,21.70
2022-11-29T11:36:14.038Z,22.00
2022-11-29T11:38:43.425Z,19.80
2022-11-29T11:41:18.767Z,20.87
2022-11-29T11:43:51.923Z,22.33
2022-11-29T11:46:21.169Z,20.43
2022-11-29T11:48:48.887Z,20.20
2022-11-29T11:51:25.860Z,22.93
2022-11-29T11:53:55.720Z,21.80
2022-11-29T11:56:25.140Z,21.17
2022-11-29T11:58:54.612Z,21.63
2022-11-29T12:01:30.977Z,22.90
2022-11-29T12:04:03.676Z,21.60
2022-11-29T12:06:40.888Z,19.67
2022-11-29T12:09:16.424Z,20.90
2022-11-29T12:11:49.581Z,21.73
2022-11-29T12:14:23.118Z,22.57
2022-11-29T12:16:59.520Z,22.00
2022-11-29T12:19:31.413Z,21.87
2022-11-29T12:22:03.583Z,20.87
2022-11-29T12:24:34.924Z,20.63
2022-11-29T12:27:05.237Z,19.30
2022-11-29T12:29:34.797Z,21.50
2022-11-29T12:32:15.836Z,20.30
2022-11-29T12:35:01.514Z,21.07
2022-11-29T12:37:33.917Z,20.40
2022-11-29T12:40:09.131Z,19.87
2022-11-29T12:42:43.029Z,22.50
2022-11-29T12:45:22.345Z,21.63
2022-11-29T12:47:55.980Z,21.60
2022-11-29T12:50:32.486Z,23.07
2022-11-29T12:53:09.668Z,21.40
2022-11-29T12:55:43.997Z,19.40
2022-11-29T12:58:15.589Z,21.03
2022-11-29T13:00:47.641Z,19.83
2022-11-29T13:03:22.345Z,21.43
2022-11-29T13:05:57.230Z,21.43
2022-11-29T13:08:39.296Z,22.17
2022-11-29T13:11:14.614Z,21.23
2022-11-29T13:13:44.088Z,22.60
2022-11-29T13:16:30.867Z,22.00
2022-11-29T13:19:06.590Z,20.13
2022-11-29T13:21:38.148Z,20.63
2022-11-29T13:24:09.032Z,21.10
2022-11-29T13:26:37.974Z,21.10
2022-11-29T13:29:05.616Z,21.17
2022-11-29T13:31:33.797Z,19.50
2022-11-29T13:34:08.613Z,21.60
2022-11-29T13:36:46.734Z,20.10
2022-11-29T13:39:29.119Z,19.53
2022-11-29T13:42:02.527Z,22.97
2022-11-29T13:44:35.799Z,21.83
2022-11-29T13:47:07.226Z,19.73
2022-11-29T13:49:59.084Z,21.50
2022-11-29T13:52:39.334Z,20.43
2022-11-29T13:55:15.854Z,20.77
2022-11-29T13:58:15.489Z,20.80
2022-11-29T14:00:50.711Z,21.43
2022-11-29T14:03:31.704Z,22.37
2022-11-29T14:06:09.783Z,23.80
2022-11-29T14:09:02.402Z,22.40
2022-11-29T14:11:28.164Z,19.40
2022-11-29T14:14:00.479Z,21.40
2022-11-29T14:16:32.431Z,23.40
2022-11-29T14:19:30.127Z,19.97
2022-11-29T14:22:22.503Z,23.20
2022-11-29T14:25:21.660Z,23.23
2022-11-29T14:28:00.722Z,24.20
2022-11-29T14:31:01.225Z,22.80
2022-11-29T14:33:56.421Z,21.20
2022-11-29T14:36:38.247Z,20.73
2022-11-29T14:39:21.530Z,22.50
2022-11-29T14:41:56.655Z,20.27
2022-11-29T14:44:26.117Z,19.40
2022-11-29T14:47:01.478Z,19.80
2022-11-29T14:49:29.955Z,22.17
2022-11-29T14:52:28.087Z,23.20
2022-11-29T14:55:06.201Z,22.40
2022-11-29T14:57:56.078Z,20.70
2022-11-29T15:00:25.857Z,19.13
2022-11-29T15:02:54.568Z,19.10
2022-11-29T15:05:28.004Z,19.40
2022-11-29T15:08:05.121Z,17.73
2022-11-29T15:10:44.430Z,18.70
2022-11-29T15:13:18.487Z,20.33
2022-11-29T15:16:07.392Z,20.77
2022-11-29T15:18:55.653Z,20.60
2022-11-29T15:21:31.297Z,19.17
2022-11-29T15:24:00.662Z,19.60
2022-11-29T15:26:32.799Z,18.10
2022-11-29T15:29:15.984Z,16.80
2022-11-29T15:31:44.605Z,16.90
2022-11-29T15:34:20.779Z,15.20
2022-11-29T15:36:48.356Z,16.07
2022-11-29T15:39:30.906Z,17.27
2022-11-29T15:42:11.366Z,18.30
2022-11-29T15:44:39.261Z,16.70
2022-11-29T15:47:17.044Z,18.60
2022-11-29T15:49:44.743Z,17.90
2022-11-29T15:52:20.359Z,17.00
2022-11-29T15:54:51.208Z,17.93
2022-11-29T15:57:24.421Z,16.00
2022-11-29T15:59:54.207Z,16.23
2022-11-29T16:02:24.293Z,16.63
2022-11-29T16:04:54.762Z,16.10
2022-11-29T16:07:24.075Z,16.33
2022-11-29T16:09:54.202Z,20.83
2022-11-29T16:12:23.643Z,17.17
2022-11-29T16:14:55.317Z,15.93
2022-11-29T16:17:26.079Z,15.30
2022-11-29T16:20:06.473Z,15.80
2022-11-29T16:22:34.016Z,16.50
2022-11-29T16:25:06.206Z,17.10
2022-11-29T16:27:36.368Z,18.73
2022-11-29T16:30:10.531Z,16.50
2022-11-29T16:32:39.422Z,20.00
2022-11-29T16:35:11.435Z,19.40
2022-11-29T16:37:44.121Z,20.47
2022-11-29T16:40:24.370Z,19.87
2022-11-29T16:43:09.367Z,18.57
2022-11-29T16:45:39.067Z,16.20
2022-11-29T16:48:40.976Z,21.77
2022-11-29T16:51:27.439Z,18.27
2022-11-29T16:55:00.609Z,18.60
2022-11-29T16:57:33.125Z,15.50
2022-11-29T17:00:47.100Z,16.23
2022-11-29T17:03:39.312Z,16.90
2022-11-29T17:06:37.143Z,16.23
2022-11-29T17:09:09.800Z,17.40
2022-11-29T17:11:43.656Z,15.80
2022-11-29T17:14:26.222Z,16.67
2022-11-29T17:17:50.940Z,16.60
2022-11-29T17:20:08.487Z,15.43
2022-11-29T17:22:57.556Z,16.77
2022-11-29T17:25:37.287Z,14.60
2022-11-29T17:28:10.947Z,14.33
2022-11-29T17:31:09.132Z,14.27
2022-11-29T17:34:23.788Z,14.00
2022-11-29T17:37:01.024Z,14.30
2022-11-29T17:43:35.160Z,15.63
2022-11-29T17:46:34.095Z,15.67
2022-11-29T17:50:24.961Z,15.57
2022-11-29T17:57:58.041Z,17.60
2022-11-29T18:16:28.010Z,15.50
2022-11-29T18:18:59.585Z,18.90
2022-11-29T18:22:03.510Z,18.13
2022-11-29T18:26:00.756Z,17.17
2022-11-29T18:34:34.746Z,18.10
2022-11-29T18:37:23.387Z,17.43
2022-11-29T18:40:03.388Z,18.70
2022-11-29T18:42:30.916Z,16.60
2022-11-29T18:45:00.287Z,20.57
2022-11-29T18:47:32.757Z,18.43
2022-11-29T18:50:00.253Z,21.97
2022-11-29T18:52:27.741Z,19.30
2022-11-29T18:54:55.269Z,20.57
2022-11-29T18:57:25.793Z,22.00
2022-11-29T18:59:53.310Z,22.23
2022-11-29T19:02:21.104Z,24.13
2022-11-29T19:04:50.239Z,21.37
2022-11-29T19:07:27.020Z,21.03
2022-11-29T19:09:54.703Z,17.17
2022-11-29T19:12:22.280Z,18.43
2022-11-29T19:14:50.284Z,18.40
2022-11-29T19:17:44.693Z,17.60
2022-11-29T19:23:43.279Z,16.60
2022-11-29T19:26:28.810Z,17.43
2022-11-29T19:29:13.248Z,17.80
2022-11-29T19:31:42.715Z,19.73
2022-11-29T19:34:17.947Z,17.27
2022-11-29T19:36:56.076Z,15.30
2022-11-29T19:39:30.736Z,16.03
2022-11-29T19:42:00.571Z,14.90
2022-11-29T19:44:39.085Z,15.13
2022-11-29T19:47:30.820Z,15.53
2022-11-29T19:50:31.149Z,15.07
2022-11-29T19:53:01.360Z,16.63
2022-11-29T19:55:42.324Z,16.37
2022-11-29T19:58:29.292Z,15.07
2022-11-29T20:04:25.457Z,15.97
2022-11-29T20:07:33.518Z,16.87
2022-11-29T20:13:07.723Z,16.80
2022-11-29T20:16:17.246Z,17.20
2022-11-29T20:18:53.703Z,15.90
2022-11-29T20:22:00.495Z,15.60
2022-11-29T20:24:45.407Z,17.80
2022-11-29T20:27:19.985Z,16.30
2022-11-29T20:30:01.342Z,16.83
2022-11-29T20:32:30.860Z,16.27
2022-11-29T20:35:12.913Z,17.80
2022-11-29T20:38:04.948Z,17.33
2022-11-29T20:41:03.011Z,18.87
2022-11-29T20:44:01.073Z,19.10
2022-11-29T20:47:07.899Z,17.60
2022-11-29T20:49:57.091Z,18.30
2022-11-29T20:55:33.200Z,16.40
2022-11-29T20:58:54.914Z,17.40
2022-11-29T21:05:17.180Z,14.97
2022-11-29T21:07:47.508Z,16.20
2022-11-29T21:10:26.892Z,15.77
2022-11-29T21:13:02.010Z,14.30
2022-11-29T21:16:05.372Z,13.60
2022-11-29T21:18:38.969Z,14.43
2022-11-29T21:21:20.492Z,13.30
2022-11-29T21:24:00.287Z,13.60
2022-11-29T21:26:38.525Z,15.20
2022-11-29T21:29:20.213Z,14.00
2022-11-29T21:32:56.401Z,15.40
2022-11-29T21:35:36.765Z,14.73
2022-11-29T21:38:06.458Z,13.23
2022-11-29T21:40:40.675Z,13.00
2022-11-29T21:43:28.761Z,14.50
2022-11-29T21:46:10.103Z,12.77
2022-11-29T21:48:38.248Z,13.30
2022-11-29T21:51:13.624Z,12.30
2022-11-29T21:53:47.126Z,15.07
2022-11-29T21:59:00.402Z,16.10
2022-11-29T22:01:29.611Z,13.60
2022-11-29T22:04:02.052Z,14.10
2022-11-29T22:09:58.336Z,15.87
2022-11-29T22:12:52.432Z,15.33
2022-11-29T22:15:24.798Z,14.50
2022-11-29T22:17:53.167Z,12.27
2022-11-29T22:20:20.860Z,13.77
2022-11-29T22:22:52.521Z,15.97
2022-11-29T22:25:23.557Z,14.97
2022-11-29T22:27:51.660Z,15.87
2022-11-29T22:30:19.610Z,14.53
2022-11-29T22:32:47.600Z,13.67
2022-11-29T22:35:15.535Z,14.90
2022-11-29T22:37:43.226Z,14.67
2022-11-29T22:40:13.128Z,17.00
2022-11-29T22:42:41.873Z,15.37
2022-11-29T22:45:10.140Z,14.17
2022-11-29T22:47:38.258Z,15.63
2022-11-29T22:50:07.599Z,13.40
2022-11-29T22:52:35.265Z,14.37
2022-11-29T22:55:05.330Z,12.20
2022-11-29T22:57:34.659Z,14.60
2022-11-29T23:00:02.469Z,13.17
2022-11-29T23:02:30.329Z,14.00
2022-11-29T23:04:58.049Z,11.77
2022-11-29T23:07:27.468Z,14.60
2022-11-29T23:09:56.214Z,13.80
2022-11-29T23:12:39.194Z,14.30
2022-11-29T23:15:09.119Z,13.97
2022-11-29T23:17:36.844Z,14.70
2022-11-29T23:20:05.530Z,14.67
2022-11-29T23:22:33.151Z,13.97
2022-11-29T23:25:00.678Z,12.80
2022-11-29T23:27:28.452Z,13.23
2022-11-29T23:30:00.475Z,15.27
2022-11-29T23:32:29.397Z,13.70
2022-11-29T23:34:57.157Z,14.83
2022-11-29T23:37:25.631Z,15.70
2022-11-29T23:39:53.371Z,15.40
2022-11-29T23:42:20.953Z,14.37
2022-11-29T23:44:50.661Z,14.87
2022-11-29T23:47:18.430Z,13.53
2022-11-29T23:49:47.488Z,14.97
2022-11-29T23:52:15.010Z,14.63
2022-11-29T23:54:42.689Z,14.93
2022-11-29T23:57:10.334Z,16.43
2022-11-29T23:59:40.724Z,15.60
